sensor_id;sensor_type;location;lat;lon;timestamp;temperature;humidity
9107;DHT22;4589;48.690;8.952;2022-08-25T00:00:43;16.40;99.90
9107;DHT22;4589;48.690;8.952;2022-08-25T00:03:10;16.30;99.90
9107;DHT22;4589;48.690;8.952;2022-08-25T00:05:37;16.00;99.90
9107;DHT22;4589;48.690;8.952;2022-08-25T00:08:03;15.90;99.90
9107;DHT22;4589;48.690;8.952;2022-08-25T00:10:35;15.80;99.90
9107;DHT22;4589;48.690;8.952;2022-08-25T00:13:02;15.70;99.90
9107;DHT22;4589;48.690;8.952;2022-08-25T00:15:28;15.70;99.90
9107;DHT22;4589;48.690;8.952;2022-08-25T00:17:57;15.80;99.90
9107;DHT22;4589;48.690;8.952;2022-08-25T00:20:23;15.90;99.90
9107;DHT22;4589;48.690;8.952;2022-08-25T00:30:09;16.10;99.90
9107;DHT22;4589;48.690;8.952;2022-08-25T00:37:29;16.00;99.90
9107;DHT22;4589;48.690;8.952;2022-08-25T00:39:54;15.90;99.90
9107;DHT22;4589;48.690;8.952;2022-08-25T00:42:22;15.90;99.90
9107;DHT22;4589;48.690;8.952;2022-08-25T00:47:14;15.70;99.90
9107;DHT22;4589;48.690;8.952;2022-08-25T00:49:49;15.60;99.90
9107;DHT22;4589;48.690;8.952;2022-08-25T00:55:00;15.30;99.90
9107;DHT22;4589;48.690;8.952;2022-08-25T01:02:24;15.20;99.90
9107;DHT22;4589;48.690;8.952;2022-08-25T01:04:50;15.10;99.90
9107;DHT22;4589;48.690;8.952;2022-08-25T01:07:18;15.10;99.90
9107;DHT22;4589;48.690;8.952;2022-08-25T01:09:45;15.00;99.90
9107;DHT22;4589;48.690;8.952;2022-08-25T01:12:12;15.00;99.90
9107;DHT22;4589;48.690;8.952;2022-08-25T01:14:38;14.90;99.90
9107;DHT22;4589;48.690;8.952;2022-08-25T01:17:04;15.00;99.90
9107;DHT22;4589;48.690;8.952;2022-08-25T01:21:58;15.00;99.90
9107;DHT22;4589;48.690;8.952;2022-08-25T01:24:34;15.00;99.90
9107;DHT22;4589;48.690;8.952;2022-08-25T01:31:59;14.90;99.90
9107;DHT22;4589;48.690;8.952;2022-08-25T01:34:27;14.80;99.90
9107;DHT22;4589;48.690;8.952;2022-08-25T01:39:20;14.70;99.90
9107;DHT22;4589;48.690;8.952;2022-08-25T01:44:36;14.70;99.90
9107;DHT22;4589;48.690;8.952;2022-08-25T01:47:02;14.60;99.90
9107;DHT22;4589;48.690;8.952;2022-08-25T01:49:28;14.60;99.90
9107;DHT22;4589;48.690;8.952;2022-08-25T01:52:24;14.50;99.90
9107;DHT22;4589;48.690;8.952;2022-08-25T01:57:19;14.40;99.90
9107;DHT22;4589;48.690;8.952;2022-08-25T01:59:46;14.40;99.90
9107;DHT22;4589;48.690;8.952;2022-08-25T02:02:12;14.30;99.90
9107;DHT22;4589;48.690;8.952;2022-08-25T02:04:37;14.30;99.90
9107;DHT22;4589;48.690;8.952;2022-08-25T02:07:05;14.20;99.90
9107;DHT22;4589;48.690;8.952;2022-08-25T02:16:51;14.50;99.90
9107;DHT22;4589;48.690;8.952;2022-08-25T02:21:44;14.50;99.90
9107;DHT22;4589;48.690;8.952;2022-08-25T02:29:04;14.30;99.90
9107;DHT22;4589;48.690;8.952;2022-08-25T02:33:56;14.50;99.90
9107;DHT22;4589;48.690;8.952;2022-08-25T02:36:22;14.40;99.90
9107;DHT22;4589;48.690;8.952;2022-08-25T02:38:48;14.40;99.90
9107;DHT22;4589;48.690;8.952;2022-08-25T02:41:17;14.30;99.90
9107;DHT22;4589;48.690;8.952;2022-08-25T02:43:45;14.30;99.90
9107;DHT22;4589;48.690;8.952;2022-08-25T02:46:14;14.20;99.90
9107;DHT22;4589;48.690;8.952;2022-08-25T02:48:40;14.20;99.90
9107;DHT22;4589;48.690;8.952;2022-08-25T02:51:07;14.20;99.90
9107;DHT22;4589;48.690;8.952;2022-08-25T03:00:53;13.90;99.90
9107;DHT22;4589;48.690;8.952;2022-08-25T03:03:20;13.90;99.90
9107;DHT22;4589;48.690;8.952;2022-08-25T03:05:46;13.90;99.90
9107;DHT22;4589;48.690;8.952;2022-08-25T03:08:12;13.70;99.90
9107;DHT22;4589;48.690;8.952;2022-08-25T03:10:38;13.70;99.90
9107;DHT22;4589;48.690;8.952;2022-08-25T03:13:04;13.50;99.90
9107;DHT22;4589;48.690;8.952;2022-08-25T03:15:30;13.70;99.90
9107;DHT22;4589;48.690;8.952;2022-08-25T03:17:56;13.50;99.90
9107;DHT22;4589;48.690;8.952;2022-08-25T03:20:23;13.50;99.90
9107;DHT22;4589;48.690;8.952;2022-08-25T03:30:27;13.60;99.90
9107;DHT22;4589;48.690;8.952;2022-08-25T03:32:53;13.70;99.90
9107;DHT22;4589;48.690;8.952;2022-08-25T03:35:19;13.60;99.90
9107;DHT22;4589;48.690;8.952;2022-08-25T03:37:45;13.50;99.90
9107;DHT22;4589;48.690;8.952;2022-08-25T03:40:13;13.50;99.90
9107;DHT22;4589;48.690;8.952;2022-08-25T03:50:09;13.40;99.90
9107;DHT22;4589;48.690;8.952;2022-08-25T03:52:36;13.40;99.90
9107;DHT22;4589;48.690;8.952;2022-08-25T03:55:05;13.40;99.90
9107;DHT22;4589;48.690;8.952;2022-08-25T04:04:49;13.00;99.90
9107;DHT22;4589;48.690;8.952;2022-08-25T04:07:16;13.20;99.90
9107;DHT22;4589;48.690;8.952;2022-08-25T04:09:41;13.20;99.90
9107;DHT22;4589;48.690;8.952;2022-08-25T04:14:33;13.10;99.90
9107;DHT22;4589;48.690;8.952;2022-08-25T04:24:17;13.20;99.90
9107;DHT22;4589;48.690;8.952;2022-08-25T04:26:52;13.10;99.90
9107;DHT22;4589;48.690;8.952;2022-08-25T04:29:21;13.00;99.90
9107;DHT22;4589;48.690;8.952;2022-08-25T04:31:47;13.10;99.90
9107;DHT22;4589;48.690;8.952;2022-08-25T04:34:15;13.00;99.90
9107;DHT22;4589;48.690;8.952;2022-08-25T04:36:40;13.10;99.90
9107;DHT22;4589;48.690;8.952;2022-08-25T04:39:06;13.00;99.90
9107;DHT22;4589;48.690;8.952;2022-08-25T04:44:00;13.10;99.90
9107;DHT22;4589;48.690;8.952;2022-08-25T04:46:29;13.10;99.90
9107;DHT22;4589;48.690;8.952;2022-08-25T04:48:56;13.20;99.90
9107;DHT22;4589;48.690;8.952;2022-08-25T04:51:28;13.20;99.90
9107;DHT22;4589;48.690;8.952;2022-08-25T04:53:54;13.10;99.90
9107;DHT22;4589;48.690;8.952;2022-08-25T04:56:23;13.10;99.90
9107;DHT22;4589;48.690;8.952;2022-08-25T04:58:50;13.10;99.90
9107;DHT22;4589;48.690;8.952;2022-08-25T05:01:19;13.10;99.90
9107;DHT22;4589;48.690;8.952;2022-08-25T05:03:52;13.10;99.90
9107;DHT22;4589;48.690;8.952;2022-08-25T05:06:18;13.20;99.90
9107;DHT22;4589;48.690;8.952;2022-08-25T05:08:43;13.10;99.90
9107;DHT22;4589;48.690;8.952;2022-08-25T05:13:37;13.20;99.90
9107;DHT22;4589;48.690;8.952;2022-08-25T05:16:03;13.20;99.90
9107;DHT22;4589;48.690;8.952;2022-08-25T05:21:00;13.40;99.90
9107;DHT22;4589;48.690;8.952;2022-08-25T05:23:25;13.50;99.90
9107;DHT22;4589;48.690;8.952;2022-08-25T05:25:51;13.60;99.90
9107;DHT22;4589;48.690;8.952;2022-08-25T05:28:18;13.70;99.90
9107;DHT22;4589;48.690;8.952;2022-08-25T05:30:44;13.70;99.90
9107;DHT22;4589;48.690;8.952;2022-08-25T05:35:38;13.80;99.90
9107;DHT22;4589;48.690;8.952;2022-08-25T05:38:04;14.00;99.90
9107;DHT22;4589;48.690;8.952;2022-08-25T05:40:31;14.00;99.90
9107;DHT22;4589;48.690;8.952;2022-08-25T05:42:57;14.10;99.90
9107;DHT22;4589;48.690;8.952;2022-08-25T05:45:23;14.10;99.90
9107;DHT22;4589;48.690;8.952;2022-08-25T05:47:49;14.20;99.90
9107;DHT22;4589;48.690;8.952;2022-08-25T05:50:15;14.30;99.90
9107;DHT22;4589;48.690;8.952;2022-08-25T05:57:34;14.90;99.90
9107;DHT22;4589;48.690;8.952;2022-08-25T06:00:01;14.90;99.90
9107;DHT22;4589;48.690;8.952;2022-08-25T06:02:27;15.00;99.90
9107;DHT22;4589;48.690;8.952;2022-08-25T06:05:07;15.20;99.90
9107;DHT22;4589;48.690;8.952;2022-08-25T06:07:33;15.30;99.90
9107;DHT22;4589;48.690;8.952;2022-08-25T06:10:01;15.70;99.90
9107;DHT22;4589;48.690;8.952;2022-08-25T06:14:55;16.10;99.90
9107;DHT22;4589;48.690;8.952;2022-08-25T06:17:20;16.40;99.90
9107;DHT22;4589;48.690;8.952;2022-08-25T06:19:46;16.50;99.90
9107;DHT22;4589;48.690;8.952;2022-08-25T06:22:12;16.80;99.90
9107;DHT22;4589;48.690;8.952;2022-08-25T06:24:38;17.10;99.90
9107;DHT22;4589;48.690;8.952;2022-08-25T06:27:03;17.40;99.90
9107;DHT22;4589;48.690;8.952;2022-08-25T06:29:29;18.00;99.90
9107;DHT22;4589;48.690;8.952;2022-08-25T06:31:55;19.30;99.90
9107;DHT22;4589;48.690;8.952;2022-08-25T06:34:20;21.00;99.90
9107;DHT22;4589;48.690;8.952;2022-08-25T06:36:46;22.50;99.70
9107;DHT22;4589;48.690;8.952;2022-08-25T06:39:11;24.00;96.80
9107;DHT22;4589;48.690;8.952;2022-08-25T06:41:37;25.30;93.70
9107;DHT22;4589;48.690;8.952;2022-08-25T06:44:04;26.10;91.90
9107;DHT22;4589;48.690;8.952;2022-08-25T06:48:56;26.20;90.70
9107;DHT22;4589;48.690;8.952;2022-08-25T06:51:24;27.20;88.80
9107;DHT22;4589;48.690;8.952;2022-08-25T06:53:50;28.10;86.50
9107;DHT22;4589;48.690;8.952;2022-08-25T06:56:18;28.80;83.10
9107;DHT22;4589;48.690;8.952;2022-08-25T06:58:45;28.40;82.70
9107;DHT22;4589;48.690;8.952;2022-08-25T07:01:20;28.60;82.20
9107;DHT22;4589;48.690;8.952;2022-08-25T07:03:48;27.50;84.90
9107;DHT22;4589;48.690;8.952;2022-08-25T07:11:08;29.00;81.80
9107;DHT22;4589;48.690;8.952;2022-08-25T07:13:35;28.20;82.40
9107;DHT22;4589;48.690;8.952;2022-08-25T07:16:01;28.10;83.30
9107;DHT22;4589;48.690;8.952;2022-08-25T07:18:27;28.00;83.50
9107;DHT22;4589;48.690;8.952;2022-08-25T07:20:52;28.30;82.70
9107;DHT22;4589;48.690;8.952;2022-08-25T07:23:19;28.80;81.00
9107;DHT22;4589;48.690;8.952;2022-08-25T07:25:45;27.90;82.90
9107;DHT22;4589;48.690;8.952;2022-08-25T07:28:11;29.00;81.50
9107;DHT22;4589;48.690;8.952;2022-08-25T07:30:37;30.30;77.90
9107;DHT22;4589;48.690;8.952;2022-08-25T07:33:02;30.40;77.00
9107;DHT22;4589;48.690;8.952;2022-08-25T07:37:57;32.10;72.80
9107;DHT22;4589;48.690;8.952;2022-08-25T07:40:41;31.70;74.00
9107;DHT22;4589;48.690;8.952;2022-08-25T07:43:07;31.50;73.80
9107;DHT22;4589;48.690;8.952;2022-08-25T07:45:34;32.00;73.00
9107;DHT22;4589;48.690;8.952;2022-08-25T07:48:09;31.10;73.90
9107;DHT22;4589;48.690;8.952;2022-08-25T07:50:39;31.20;74.20
9107;DHT22;4589;48.690;8.952;2022-08-25T07:53:07;32.50;71.60
9107;DHT22;4589;48.690;8.952;2022-08-25T07:58:02;31.20;73.40
9107;DHT22;4589;48.690;8.952;2022-08-25T08:02:57;30.10;75.60
9107;DHT22;4589;48.690;8.952;2022-08-25T08:07:50;30.30;75.00
9107;DHT22;4589;48.690;8.952;2022-08-25T08:15:09;31.20;73.70
9107;DHT22;4589;48.690;8.952;2022-08-25T08:22:29;30.90;73.00
9107;DHT22;4589;48.690;8.952;2022-08-25T08:34:40;30.30;73.90
9107;DHT22;4589;48.690;8.952;2022-08-25T08:37:07;31.10;72.90
9107;DHT22;4589;48.690;8.952;2022-08-25T08:39:33;32.20;71.10
9107;DHT22;4589;48.690;8.952;2022-08-25T08:47:39;31.10;71.70
9107;DHT22;4589;48.690;8.952;2022-08-25T08:52:43;30.20;74.60
9107;DHT22;4589;48.690;8.952;2022-08-25T08:57:48;31.10;72.30
9107;DHT22;4589;48.690;8.952;2022-08-25T09:03:04;30.90;72.30
9107;DHT22;4589;48.690;8.952;2022-08-25T09:05:47;30.90;72.10
9107;DHT22;4589;48.690;8.952;2022-08-25T09:08:13;30.10;73.50
9107;DHT22;4589;48.690;8.952;2022-08-25T09:24:51;31.90;70.10
9107;DHT22;4589;48.690;8.952;2022-08-25T09:27:27;32.40;68.10
9107;DHT22;4589;48.690;8.952;2022-08-25T09:30:09;32.30;68.50
9107;DHT22;4589;48.690;8.952;2022-08-25T09:32:42;30.70;71.70
9107;DHT22;4589;48.690;8.952;2022-08-25T09:35:19;30.90;70.50
9107;DHT22;4589;48.690;8.952;2022-08-25T09:40:27;31.90;67.40
9107;DHT22;4589;48.690;8.952;2022-08-25T09:42:55;31.10;68.20
9107;DHT22;4589;48.690;8.952;2022-08-25T09:45:41;31.20;70.60
9107;DHT22;4589;48.690;8.952;2022-08-25T09:51:33;31.50;69.60
9107;DHT22;4589;48.690;8.952;2022-08-25T09:56:48;33.90;65.30
9107;DHT22;4589;48.690;8.952;2022-08-25T09:59:34;34.70;63.70
9107;DHT22;4589;48.690;8.952;2022-08-25T10:02:10;33.40;65.00
9107;DHT22;4589;48.690;8.952;2022-08-25T10:07:26;32.70;66.30
9107;DHT22;4589;48.690;8.952;2022-08-25T10:17:31;31.50;69.30
9107;DHT22;4589;48.690;8.952;2022-08-25T10:22:36;32.70;65.70
9107;DHT22;4589;48.690;8.952;2022-08-25T10:25:03;33.20;65.30
9107;DHT22;4589;48.690;8.952;2022-08-25T10:30:33;32.80;65.50
9107;DHT22;4589;48.690;8.952;2022-08-25T10:33:32;33.30;64.80
9107;DHT22;4589;48.690;8.952;2022-08-25T10:41:49;33.50;62.90
9107;DHT22;4589;48.690;8.952;2022-08-25T10:50:32;34.90;60.70
9107;DHT22;4589;48.690;8.952;2022-08-25T10:58:26;34.60;62.20
9107;DHT22;4589;48.690;8.952;2022-08-25T11:01:10;34.70;60.70
9107;DHT22;4589;48.690;8.952;2022-08-25T11:03:44;33.40;63.40
9107;DHT22;4589;48.690;8.952;2022-08-25T11:06:19;33.40;64.30
9107;DHT22;4589;48.690;8.952;2022-08-25T11:08:52;32.90;63.20
9107;DHT22;4589;48.690;8.952;2022-08-25T11:19:42;34.50;61.00
9107;DHT22;4589;48.690;8.952;2022-08-25T11:27:14;35.10;59.80
9107;DHT22;4589;48.690;8.952;2022-08-25T11:29:48;34.90;59.60
9107;DHT22;4589;48.690;8.952;2022-08-25T11:32:19;35.80;57.90
9107;DHT22;4589;48.690;8.952;2022-08-25T11:34:46;35.00;59.20
9107;DHT22;4589;48.690;8.952;2022-08-25T11:37:24;34.40;59.70
9107;DHT22;4589;48.690;8.952;2022-08-25T11:40:13;34.60;60.00
9107;DHT22;4589;48.690;8.952;2022-08-25T11:42:59;33.50;60.80
9107;DHT22;4589;48.690;8.952;2022-08-25T11:48:40;32.70;64.70
9107;DHT22;4589;48.690;8.952;2022-08-25T11:51:08;34.90;60.70
9107;DHT22;4589;48.690;8.952;2022-08-25T11:53:37;35.60;58.60
9107;DHT22;4589;48.690;8.952;2022-08-25T11:56:10;33.90;60.00
9107;DHT22;4589;48.690;8.952;2022-08-25T11:58:48;32.30;63.90
9107;DHT22;4589;48.690;8.952;2022-08-25T12:09:31;32.60;62.10
9107;DHT22;4589;48.690;8.952;2022-08-25T12:11:57;32.40;63.10
9107;DHT22;4589;48.690;8.952;2022-08-25T12:27:30;35.00;61.60
9107;DHT22;4589;48.690;8.952;2022-08-25T12:30:26;36.40;59.30
9107;DHT22;4589;48.690;8.952;2022-08-25T12:36:10;36.80;56.20
9107;DHT22;4589;48.690;8.952;2022-08-25T12:41:21;31.50;64.90
9107;DHT22;4589;48.690;8.952;2022-08-25T12:43:49;30.70;66.60
9107;DHT22;4589;48.690;8.952;2022-08-25T12:54:21;37.70;54.40
9107;DHT22;4589;48.690;8.952;2022-08-25T12:57:03;35.10;57.50
9107;DHT22;4589;48.690;8.952;2022-08-25T12:59:38;36.10;59.00
9107;DHT22;4589;48.690;8.952;2022-08-25T13:04:49;32.10;62.00
9107;DHT22;4589;48.690;8.952;2022-08-25T13:15:13;38.80;56.60
9107;DHT22;4589;48.690;8.952;2022-08-25T13:17:39;39.60;52.10
9107;DHT22;4589;48.690;8.952;2022-08-25T13:20:22;35.50;55.50
9107;DHT22;4589;48.690;8.952;2022-08-25T13:22:51;35.60;58.90
9107;DHT22;4589;48.690;8.952;2022-08-25T13:25:18;34.30;57.00
9107;DHT22;4589;48.690;8.952;2022-08-25T13:27:50;32.70;59.90
9107;DHT22;4589;48.690;8.952;2022-08-25T13:30:31;32.30;61.70
9107;DHT22;4589;48.690;8.952;2022-08-25T13:35:29;31.20;63.80
9107;DHT22;4589;48.690;8.952;2022-08-25T13:38:16;30.50;64.60
9107;DHT22;4589;48.690;8.952;2022-08-25T13:43:11;29.80;66.30
9107;DHT22;4589;48.690;8.952;2022-08-25T13:45:43;29.50;66.90
9107;DHT22;4589;48.690;8.952;2022-08-25T13:50:38;30.70;65.60
9107;DHT22;4589;48.690;8.952;2022-08-25T13:53:25;32.20;61.50
9107;DHT22;4589;48.690;8.952;2022-08-25T13:55:56;33.90;58.50
9107;DHT22;4589;48.690;8.952;2022-08-25T13:58:33;35.30;56.10
9107;DHT22;4589;48.690;8.952;2022-08-25T14:03:33;38.00;51.70
9107;DHT22;4589;48.690;8.952;2022-08-25T14:14:02;32.90;60.30
9107;DHT22;4589;48.690;8.952;2022-08-25T14:16:28;32.50;62.00
9107;DHT22;4589;48.690;8.952;2022-08-25T14:21:27;32.00;63.30
9107;DHT22;4589;48.690;8.952;2022-08-25T14:23:54;32.30;62.50
9107;DHT22;4589;48.690;8.952;2022-08-25T14:26:20;31.70;63.30
9107;DHT22;4589;48.690;8.952;2022-08-25T14:28:46;31.40;64.50
9107;DHT22;4589;48.690;8.952;2022-08-25T14:31:33;31.50;64.10
9107;DHT22;4589;48.690;8.952;2022-08-25T14:34:02;31.40;64.10
9107;DHT22;4589;48.690;8.952;2022-08-25T14:36:30;31.50;64.90
9107;DHT22;4589;48.690;8.952;2022-08-25T14:38:57;31.30;64.70
9107;DHT22;4589;48.690;8.952;2022-08-25T14:41:24;30.80;65.80
9107;DHT22;4589;48.690;8.952;2022-08-25T14:46:26;30.10;67.40
9107;DHT22;4589;48.690;8.952;2022-08-25T14:51:21;29.10;68.90
9107;DHT22;4589;48.690;8.952;2022-08-25T15:01:06;28.80;69.60
9107;DHT22;4589;48.690;8.952;2022-08-25T15:06:03;28.90;69.80
9107;DHT22;4589;48.690;8.952;2022-08-25T15:11:13;28.70;69.50
9107;DHT22;4589;48.690;8.952;2022-08-25T15:13:40;28.60;69.80
9107;DHT22;4589;48.690;8.952;2022-08-25T15:25:53;29.40;68.50
9107;DHT22;4589;48.690;8.952;2022-08-25T15:28:20;29.30;68.90
9107;DHT22;4589;48.690;8.952;2022-08-25T15:33:12;29.20;69.10
9107;DHT22;4589;48.690;8.952;2022-08-25T15:35:39;29.10;68.90
9107;DHT22;4589;48.690;8.952;2022-08-25T15:45:25;29.20;68.40
9107;DHT22;4589;48.690;8.952;2022-08-25T15:50:20;29.40;67.10
9107;DHT22;4589;48.690;8.952;2022-08-25T15:52:45;29.30;66.20
9107;DHT22;4589;48.690;8.952;2022-08-25T15:57:38;29.00;66.10
9107;DHT22;4589;48.690;8.952;2022-08-25T16:00:06;29.10;65.20
9107;DHT22;4589;48.690;8.952;2022-08-25T16:02:32;29.30;65.50
9107;DHT22;4589;48.690;8.952;2022-08-25T16:04:59;29.30;66.50
9107;DHT22;4589;48.690;8.952;2022-08-25T16:09:54;29.10;66.80
9107;DHT22;4589;48.690;8.952;2022-08-25T16:12:21;29.10;66.80
9107;DHT22;4589;48.690;8.952;2022-08-25T16:14:46;29.30;66.80
9107;DHT22;4589;48.690;8.952;2022-08-25T16:19:39;29.60;66.80
9107;DHT22;4589;48.690;8.952;2022-08-25T16:24:31;29.40;67.60
9107;DHT22;4589;48.690;8.952;2022-08-25T16:29:30;29.20;69.40
9107;DHT22;4589;48.690;8.952;2022-08-25T16:31:57;28.80;70.40
9107;DHT22;4589;48.690;8.952;2022-08-25T16:41:41;28.70;71.00
9107;DHT22;4589;48.690;8.952;2022-08-25T16:44:06;28.60;71.20
9107;DHT22;4589;48.690;8.952;2022-08-25T16:56:39;28.20;72.10
9107;DHT22;4589;48.690;8.952;2022-08-25T17:01:34;28.00;72.20
9107;DHT22;4589;48.690;8.952;2022-08-25T17:06:28;28.00;72.80
9107;DHT22;4589;48.690;8.952;2022-08-25T17:11:26;27.80;72.50
9107;DHT22;4589;48.690;8.952;2022-08-25T17:13:54;27.80;72.70
9107;DHT22;4589;48.690;8.952;2022-08-25T17:16:22;27.70;73.20
9107;DHT22;4589;48.690;8.952;2022-08-25T17:18:50;27.80;72.70
9107;DHT22;4589;48.690;8.952;2022-08-25T17:21:18;27.70;73.00
9107;DHT22;4589;48.690;8.952;2022-08-25T17:23:44;27.60;73.20
9107;DHT22;4589;48.690;8.952;2022-08-25T17:26:13;27.50;73.30
9107;DHT22;4589;48.690;8.952;2022-08-25T17:28:39;27.40;73.50
9107;DHT22;4589;48.690;8.952;2022-08-25T17:38:26;27.20;74.20
9107;DHT22;4589;48.690;8.952;2022-08-25T17:40:53;27.20;74.40
9107;DHT22;4589;48.690;8.952;2022-08-25T17:45:50;27.00;74.70
9107;DHT22;4589;48.690;8.952;2022-08-25T17:48:17;26.90;75.20
9107;DHT22;4589;48.690;8.952;2022-08-25T17:53:10;26.80;76.40
9107;DHT22;4589;48.690;8.952;2022-08-25T18:05:22;26.20;78.70
9107;DHT22;4589;48.690;8.952;2022-08-25T18:07:48;26.00;79.10
9107;DHT22;4589;48.690;8.952;2022-08-25T18:10:14;26.10;79.40
9107;DHT22;4589;48.690;8.952;2022-08-25T18:15:08;26.00;80.00
9107;DHT22;4589;48.690;8.952;2022-08-25T18:17:35;26.00;80.20
9107;DHT22;4589;48.690;8.952;2022-08-25T18:20:03;26.00;80.50
9107;DHT22;4589;48.690;8.952;2022-08-25T18:22:31;25.90;80.80
9107;DHT22;4589;48.690;8.952;2022-08-25T18:24:57;25.70;81.30
9107;DHT22;4589;48.690;8.952;2022-08-25T18:27:24;25.50;81.80
9107;DHT22;4589;48.690;8.952;2022-08-25T18:39:53;25.40;82.80
9107;DHT22;4589;48.690;8.952;2022-08-25T18:45:04;25.10;83.80
9107;DHT22;4589;48.690;8.952;2022-08-25T18:47:30;24.80;84.30
9107;DHT22;4589;48.690;8.952;2022-08-25T18:49:56;24.60;85.00
9107;DHT22;4589;48.690;8.952;2022-08-25T18:52:21;24.50;85.90
9107;DHT22;4589;48.690;8.952;2022-08-25T19:02:06;23.80;87.20
9107;DHT22;4589;48.690;8.952;2022-08-25T19:04:35;23.60;87.90
9107;DHT22;4589;48.690;8.952;2022-08-25T19:07:01;23.40;88.30
9107;DHT22;4589;48.690;8.952;2022-08-25T19:09:26;23.30;88.90
9107;DHT22;4589;48.690;8.952;2022-08-25T19:14:18;23.10;90.20
9107;DHT22;4589;48.690;8.952;2022-08-25T19:16:44;23.20;90.10
9107;DHT22;4589;48.690;8.952;2022-08-25T19:19:12;23.10;89.90
9107;DHT22;4589;48.690;8.952;2022-08-25T19:21:38;23.00;89.80
9107;DHT22;4589;48.690;8.952;2022-08-25T19:26:32;23.00;90.40
9107;DHT22;4589;48.690;8.952;2022-08-25T19:31:26;22.50;90.80
9107;DHT22;4589;48.690;8.952;2022-08-25T19:33:53;22.30;91.00
9107;DHT22;4589;48.690;8.952;2022-08-25T19:36:22;22.10;91.60
9107;DHT22;4589;48.690;8.952;2022-08-25T19:38:50;22.10;91.50
9107;DHT22;4589;48.690;8.952;2022-08-25T19:46:08;21.80;92.20
9107;DHT22;4589;48.690;8.952;2022-08-25T19:48:33;21.70;92.20
9107;DHT22;4589;48.690;8.952;2022-08-25T19:50:59;21.60;92.40
9107;DHT22;4589;48.690;8.952;2022-08-25T19:53:25;21.50;92.80
9107;DHT22;4589;48.690;8.952;2022-08-25T19:55:50;21.40;92.70
9107;DHT22;4589;48.690;8.952;2022-08-25T19:58:16;21.30;93.30
9107;DHT22;4589;48.690;8.952;2022-08-25T20:00:41;21.10;93.40
9107;DHT22;4589;48.690;8.952;2022-08-25T20:03:07;21.10;93.80
9107;DHT22;4589;48.690;8.952;2022-08-25T20:05:34;21.00;94.10
9107;DHT22;4589;48.690;8.952;2022-08-25T20:08:00;20.90;93.90
9107;DHT22;4589;48.690;8.952;2022-08-25T20:10:29;21.10;93.60
9107;DHT22;4589;48.690;8.952;2022-08-25T20:12:57;20.90;93.70
9107;DHT22;4589;48.690;8.952;2022-08-25T20:15:23;20.90;93.90
9107;DHT22;4589;48.690;8.952;2022-08-25T20:17:48;20.90;93.90
9107;DHT22;4589;48.690;8.952;2022-08-25T20:20:17;20.90;94.00
9107;DHT22;4589;48.690;8.952;2022-08-25T20:22:43;20.80;94.10
9107;DHT22;4589;48.690;8.952;2022-08-25T20:25:22;20.80;94.20
9107;DHT22;4589;48.690;8.952;2022-08-25T20:27:51;20.60;94.30
9107;DHT22;4589;48.690;8.952;2022-08-25T20:30:20;20.50;94.50
9107;DHT22;4589;48.690;8.952;2022-08-25T20:32:47;20.30;94.60
9107;DHT22;4589;48.690;8.952;2022-08-25T20:35:14;20.20;94.90
9107;DHT22;4589;48.690;8.952;2022-08-25T20:37:42;20.00;95.40
9107;DHT22;4589;48.690;8.952;2022-08-25T20:42:35;20.00;95.60
9107;DHT22;4589;48.690;8.952;2022-08-25T20:45:00;20.00;95.50
9107;DHT22;4589;48.690;8.952;2022-08-25T20:47:26;19.80;95.40
9107;DHT22;4589;48.690;8.952;2022-08-25T20:52:18;19.70;96.20
9107;DHT22;4589;48.690;8.952;2022-08-25T21:06:56;19.20;97.60
9107;DHT22;4589;48.690;8.952;2022-08-25T21:09:24;19.30;97.30
9107;DHT22;4589;48.690;8.952;2022-08-25T21:14:19;19.10;97.40
9107;DHT22;4589;48.690;8.952;2022-08-25T21:19:13;19.00;97.50
9107;DHT22;4589;48.690;8.952;2022-08-25T21:21:39;18.90;97.50
9107;DHT22;4589;48.690;8.952;2022-08-25T21:24:04;18.90;97.70
9107;DHT22;4589;48.690;8.952;2022-08-25T21:29:00;18.70;98.00
9107;DHT22;4589;48.690;8.952;2022-08-25T21:31:27;18.60;98.10
9107;DHT22;4589;48.690;8.952;2022-08-25T21:33:55;18.50;98.30
9107;DHT22;4589;48.690;8.952;2022-08-25T21:41:22;18.50;98.80
9107;DHT22;4589;48.690;8.952;2022-08-25T21:46:20;18.50;99.00
9107;DHT22;4589;48.690;8.952;2022-08-25T21:48:46;18.60;99.10
9107;DHT22;4589;48.690;8.952;2022-08-25T21:51:17;18.40;99.10
9107;DHT22;4589;48.690;8.952;2022-08-25T21:56:14;18.20;99.40
9107;DHT22;4589;48.690;8.952;2022-08-25T22:01:12;17.90;99.90
9107;DHT22;4589;48.690;8.952;2022-08-25T22:06:06;17.60;99.90
9107;DHT22;4589;48.690;8.952;2022-08-25T22:08:33;17.60;99.90
9107;DHT22;4589;48.690;8.952;2022-08-25T22:10:59;17.60;99.90
9107;DHT22;4589;48.690;8.952;2022-08-25T22:13:28;17.60;99.90
9107;DHT22;4589;48.690;8.952;2022-08-25T22:15:54;17.70;99.90
9107;DHT22;4589;48.690;8.952;2022-08-25T22:18:20;17.80;99.90
9107;DHT22;4589;48.690;8.952;2022-08-25T22:20:47;17.80;99.90
9107;DHT22;4589;48.690;8.952;2022-08-25T22:23:13;17.60;99.90
9107;DHT22;4589;48.690;8.952;2022-08-25T22:25:39;17.50;99.90
9107;DHT22;4589;48.690;8.952;2022-08-25T22:28:04;17.50;99.90
9107;DHT22;4589;48.690;8.952;2022-08-25T22:30:31;17.40;99.90
9107;DHT22;4589;48.690;8.952;2022-08-25T22:32:57;17.50;99.90
9107;DHT22;4589;48.690;8.952;2022-08-25T22:35:24;17.50;99.90
9107;DHT22;4589;48.690;8.952;2022-08-25T22:40:16;17.40;99.90
9107;DHT22;4589;48.690;8.952;2022-08-25T22:42:41;17.30;99.90
9107;DHT22;4589;48.690;8.952;2022-08-25T22:47:34;17.20;99.90
9107;DHT22;4589;48.690;8.952;2022-08-25T22:50:00;17.30;99.90
9107;DHT22;4589;48.690;8.952;2022-08-25T22:52:26;17.30;99.90
9107;DHT22;4589;48.690;8.952;2022-08-25T22:54:52;17.30;99.90
9107;DHT22;4589;48.690;8.952;2022-08-25T23:04:36;17.00;99.90
9107;DHT22;4589;48.690;8.952;2022-08-25T23:07:03;17.00;99.90
9107;DHT22;4589;48.690;8.952;2022-08-25T23:09:29;17.10;99.90
9107;DHT22;4589;48.690;8.952;2022-08-25T23:11:55;17.10;99.90
9107;DHT22;4589;48.690;8.952;2022-08-25T23:14:21;17.10;99.90
9107;DHT22;4589;48.690;8.952;2022-08-25T23:16:47;16.90;99.90
9107;DHT22;4589;48.690;8.952;2022-08-25T23:19:14;16.80;99.90
9107;DHT22;4589;48.690;8.952;2022-08-25T23:24:25;16.70;99.90
9107;DHT22;4589;48.690;8.952;2022-08-25T23:26:51;16.60;99.90
9107;DHT22;4589;48.690;8.952;2022-08-25T23:31:43;16.30;99.90
9107;DHT22;4589;48.690;8.952;2022-08-25T23:34:09;16.20;99.90
9107;DHT22;4589;48.690;8.952;2022-08-25T23:36:34;16.30;99.90
9107;DHT22;4589;48.690;8.952;2022-08-25T23:39:00;16.50;99.90
9107;DHT22;4589;48.690;8.952;2022-08-25T23:41:26;16.50;99.90
9107;DHT22;4589;48.690;8.952;2022-08-25T23:43:52;16.50;99.90
9107;DHT22;4589;48.690;8.952;2022-08-25T23:51:12;16.40;99.90
9107;DHT22;4589;48.690;8.952;2022-08-25T23:53:46;16.40;99.90
9107;DHT22;4589;48.690;8.952;2022-08-25T23:56:12;16.30;99.90
9107;DHT22;4589;48.690;8.952;2022-08-25T23:58:37;16.20;99.90
